KLM995 EHAM-EGLC
Flight info
| Callsign | KLM995 |
|---|---|
| Flight time | N/A |
| Altitude | 20000 |
| Route | IDRID L980 XAMAN |
| Aircraft | B738/M-SDE2E3FGHIRWXY/LB1 |
Departure
| Time | 2026-05-01 15:02 |
|---|---|
| Airport | Amsterdam Airport Schiphol (EHAM) |
Arrival
| Time | N/A |
|---|---|
| Airport | London City Airport (EGLC) |
| Time | Latitude | Longitude | Altitude | Speed | Heading |
|---|---|---|---|---|---|
| 2026-05-01 14:38 | 52.30286 | 4.76095 | -2 ft | 0 kts | 238° |
| 2026-05-01 14:47 | 52.30282 | 4.76086 | -2 ft | 0 kts | 238° |
| 2026-05-01 14:51 | 52.30285 | 4.76092 | -2 ft | 2 kts | 238° |
| 2026-05-01 14:52 | 52.30302 | 4.76138 | -2 ft | 2 kts | 238° |
| 2026-05-01 14:52 | 52.30310 | 4.76161 | -2 ft | 2 kts | 238° |
| 2026-05-01 14:52 | 52.30326 | 4.76203 | -2 ft | 0 kts | 231° |
| 2026-05-01 14:56 | 52.30325 | 4.76202 | -2 ft | 1 kts | 231° |
| 2026-05-01 14:57 | 52.30307 | 4.76172 | -2 ft | 3 kts | 206° |
| 2026-05-01 14:57 | 52.30148 | 4.76287 | -2 ft | 16 kts | 144° |
| 2026-05-01 14:57 | 52.30166 | 4.76442 | -2 ft | 15 kts | 57° |
| 2026-05-01 14:58 | 52.30221 | 4.76585 | -2 ft | 15 kts | 58° |
| 2026-05-01 14:58 | 52.30275 | 4.76727 | -2 ft | 16 kts | 58° |
| 2026-05-01 14:58 | 52.30339 | 4.76894 | -2 ft | 19 kts | 58° |
| 2026-05-01 14:58 | 52.30415 | 4.77092 | -2 ft | 22 kts | 58° |
| 2026-05-01 14:59 | 52.30503 | 4.77319 | -2 ft | 25 kts | 58° |
| 2026-05-01 14:59 | 52.30604 | 4.77554 | -2 ft | 25 kts | 38° |
| 2026-05-01 14:59 | 52.30766 | 4.77598 | -2 ft | 23 kts | 3° |
| 2026-05-01 14:59 | 52.30924 | 4.77613 | -2 ft | 22 kts | 3° |
| 2026-05-01 15:00 | 52.31224 | 4.77640 | -2 ft | 21 kts | 3° |
| 2026-05-01 15:00 | 52.31369 | 4.77653 | -2 ft | 21 kts | 3° |
| 2026-05-01 15:00 | 52.31498 | 4.77588 | -2 ft | 15 kts | 320° |
| 2026-05-01 15:01 | 52.31580 | 4.77598 | -2 ft | 14 kts | 61° |
| 2026-05-01 15:01 | 52.31590 | 4.77749 | -2 ft | 13 kts | 87° |
| 2026-05-01 15:01 | 52.31594 | 4.77896 | -1 ft | 13 kts | 87° |
| 2026-05-01 15:01 | 52.31530 | 4.77961 | 0 ft | 12 kts | 182° |
| 2026-05-01 15:02 | 52.31415 | 4.77951 | -1 ft | 36 kts | 182° |
| 2026-05-01 15:02 | 52.31150 | 4.77927 | -4 ft | 84 kts | 184° |
| 2026-05-01 15:02 | 52.29999 | 4.77807 | 145 ft | 149 kts | 181° |
| 2026-05-01 15:02 | 52.28950 | 4.77722 | 881 ft | 152 kts | 178° |
| 2026-05-01 15:03 | 52.27926 | 4.77886 | 1791 ft | 148 kts | 166° |
| 2026-05-01 15:03 | 52.26848 | 4.78469 | 2245 ft | 178 kts | 161° |
| 2026-05-01 15:03 | 52.25623 | 4.79157 | 2882 ft | 187 kts | 164° |
| 2026-05-01 15:03 | 52.24326 | 4.79701 | 3493 ft | 201 kts | 168° |
| 2026-05-01 15:04 | 52.22860 | 4.79439 | 3695 ft | 232 kts | 206° |
| 2026-05-01 15:04 | 52.21705 | 4.77441 | 4163 ft | 256 kts | 244° |
| 2026-05-01 15:04 | 52.21199 | 4.74639 | 5040 ft | 261 kts | 252° |
| 2026-05-01 15:04 | 52.20787 | 4.71733 | 5839 ft | 266 kts | 254° |
| 2026-05-01 15:05 | 52.20378 | 4.68784 | 6669 ft | 268 kts | 253° |
| 2026-05-01 15:05 | 52.19956 | 4.65794 | 7445 ft | 272 kts | 253° |
| 2026-05-01 15:05 | 52.19519 | 4.62774 | 8235 ft | 276 kts | 253° |
| 2026-05-01 15:05 | 52.19065 | 4.59713 | 9092 ft | 279 kts | 252° |
| 2026-05-01 15:06 | 52.18599 | 4.56618 | 9933 ft | 283 kts | 252° |
| 2026-05-01 15:06 | 52.18120 | 4.53466 | 10615 ft | 293 kts | 252° |
| 2026-05-01 15:06 | 52.17601 | 4.50110 | 10844 ft | 318 kts | 252° |
| 2026-05-01 15:06 | 52.17048 | 4.46544 | 11413 ft | 329 kts | 252° |
| 2026-05-01 15:07 | 52.16483 | 4.42896 | 12190 ft | 333 kts | 252° |
| 2026-05-01 15:07 | 52.15911 | 4.39210 | 13026 ft | 338 kts | 252° |
| 2026-05-01 15:07 | 52.15329 | 4.35482 | 13870 ft | 342 kts | 251° |
| 2026-05-01 15:07 | 52.14740 | 4.31719 | 14718 ft | 343 kts | 252° |
| 2026-05-01 15:08 | 52.14151 | 4.27961 | 15735 ft | 339 kts | 252° |
| 2026-05-01 15:08 | 52.13569 | 4.24260 | 16766 ft | 336 kts | 252° |
| 2026-05-01 15:08 | 52.13001 | 4.20663 | 17717 ft | 335 kts | 252° |
| 2026-05-01 15:08 | 52.12420 | 4.16997 | 18650 ft | 334 kts | 252° |
| 2026-05-01 15:09 | 52.11848 | 4.13389 | 19480 ft | 333 kts | 252° |
| 2026-05-01 15:09 | 52.11264 | 4.09726 | 19950 ft | 335 kts | 252° |
| 2026-05-01 15:09 | 52.10681 | 4.06068 | 20199 ft | 333 kts | 252° |
| 2026-05-01 15:09 | 52.10100 | 4.02431 | 20204 ft | 331 kts | 252° |
| 2026-05-01 15:10 | 52.09518 | 3.98799 | 20224 ft | 333 kts | 252° |
| 2026-05-01 15:10 | 52.08346 | 3.91498 | 20223 ft | 335 kts | 252° |
| 2026-05-01 15:10 | 52.07755 | 3.87834 | 20221 ft | 335 kts | 252° |
| 2026-05-01 15:11 | 52.07158 | 3.84167 | 20221 ft | 335 kts | 251° |
| 2026-05-01 15:11 | 52.05674 | 3.77011 | 20230 ft | 333 kts | 246° |
| 2026-05-01 15:11 | 52.04880 | 3.73484 | 20217 ft | 332 kts | 246° |
| 2026-05-01 15:12 | 52.04090 | 3.69954 | 20216 ft | 332 kts | 246° |
| 2026-05-01 15:12 | 52.02530 | 3.62911 | 20218 ft | 331 kts | 247° |
| 2026-05-01 15:12 | 52.01757 | 3.59392 | 20217 ft | 330 kts | 247° |
| 2026-05-01 15:13 | 51.99293 | 3.48998 | 20213 ft | 326 kts | 237° |
| 2026-05-01 15:14 | 51.96713 | 3.43061 | 20219 ft | 324 kts | 230° |
| 2026-05-01 15:14 | 51.95364 | 3.40141 | 20217 ft | 324 kts | 230° |
| 2026-05-01 15:14 | 51.92672 | 3.34273 | 20216 ft | 325 kts | 231° |
| 2026-05-01 15:15 | 51.89991 | 3.28380 | 20216 ft | 325 kts | 231° |
| 2026-05-01 15:15 | 51.87304 | 3.22477 | 20211 ft | 326 kts | 230° |
| 2026-05-01 15:16 | 51.85074 | 3.16080 | 20211 ft | 331 kts | 248° |
| 2026-05-01 15:16 | 51.84263 | 3.08699 | 20208 ft | 336 kts | 261° |
| 2026-05-01 15:17 | 51.83829 | 3.01179 | 20199 ft | 336 kts | 261° |
| 2026-05-01 15:18 | 51.83136 | 2.89902 | 20202 ft | 336 kts | 260° |
| 2026-05-01 15:18 | 51.82893 | 2.86154 | 20198 ft | 335 kts | 260° |
| 2026-05-01 15:19 | 51.82155 | 2.74964 | 19693 ft | 330 kts | 260° |
| 2026-05-01 15:19 | 51.81667 | 2.67687 | 19216 ft | 326 kts | 260° |
| 2026-05-01 15:19 | 51.81420 | 2.64049 | 18983 ft | 323 kts | 260° |
| 2026-05-01 15:20 | 51.80928 | 2.56885 | 18516 ft | 319 kts | 259° |
| 2026-05-01 15:20 | 51.80682 | 2.53330 | 18249 ft | 318 kts | 259° |
| 2026-05-01 15:20 | 51.80436 | 2.49790 | 17990 ft | 317 kts | 259° |
| 2026-05-01 15:21 | 51.80188 | 2.46247 | 17730 ft | 317 kts | 259° |
| 2026-05-01 15:21 | 51.79941 | 2.42719 | 17470 ft | 316 kts | 259° |
| 2026-05-01 15:21 | 51.79694 | 2.39199 | 17201 ft | 315 kts | 259° |
| 2026-05-01 15:21 | 51.79446 | 2.35679 | 16958 ft | 314 kts | 259° |
| 2026-05-01 15:22 | 51.78953 | 2.28725 | 16454 ft | 313 kts | 259° |
| 2026-05-01 15:22 | 51.78704 | 2.25236 | 16205 ft | 312 kts | 259° |
| 2026-05-01 15:22 | 51.78458 | 2.21779 | 15971 ft | 307 kts | 259° |
| 2026-05-01 15:23 | 51.78245 | 2.18361 | 15659 ft | 305 kts | 260° |
| 2026-05-01 15:23 | 51.78046 | 2.14953 | 15339 ft | 303 kts | 260° |
| 2026-05-01 15:23 | 51.77850 | 2.11571 | 15019 ft | 302 kts | 260° |
| 2026-05-01 15:23 | 51.77653 | 2.08206 | 14697 ft | 301 kts | 260° |
| 2026-05-01 15:24 | 51.77455 | 2.04843 | 14368 ft | 299 kts | 260° |
| 2026-05-01 15:24 | 51.77255 | 2.01496 | 14047 ft | 299 kts | 260° |
| 2026-05-01 15:24 | 51.77054 | 1.98156 | 13688 ft | 298 kts | 260° |
| 2026-05-01 15:24 | 51.76855 | 1.94877 | 13341 ft | 296 kts | 260° |
| 2026-05-01 15:25 | 51.76655 | 1.91576 | 13003 ft | 295 kts | 260° |
| 2026-05-01 15:25 | 51.76454 | 1.88299 | 12676 ft | 293 kts | 260° |
| 2026-05-01 15:25 | 51.76253 | 1.85030 | 12352 ft | 291 kts | 260° |
| 2026-05-01 15:25 | 51.76053 | 1.81788 | 12029 ft | 290 kts | 260° |
| 2026-05-01 15:26 | 51.75852 | 1.78561 | 11712 ft | 288 kts | 260° |
| 2026-05-01 15:26 | 51.75652 | 1.75351 | 11391 ft | 286 kts | 260° |
| 2026-05-01 15:26 | 51.75453 | 1.72164 | 11077 ft | 285 kts | 261° |
| 2026-05-01 15:26 | 51.75254 | 1.68982 | 10761 ft | 284 kts | 261° |
| 2026-05-01 15:27 | 51.75054 | 1.65830 | 10456 ft | 282 kts | 261° |
| 2026-05-01 15:27 | 51.74856 | 1.62698 | 10269 ft | 276 kts | 261° |
| 2026-05-01 15:27 | 51.74662 | 1.59642 | 9990 ft | 274 kts | 261° |
| 2026-05-01 15:28 | 51.74280 | 1.53628 | 9587 ft | 262 kts | 261° |
| 2026-05-01 15:28 | 51.74096 | 1.50742 | 9463 ft | 254 kts | 261° |
| 2026-05-01 15:28 | 51.73917 | 1.47945 | 9350 ft | 247 kts | 261° |
| 2026-05-01 15:29 | 51.73436 | 1.42717 | 9125 ft | 227 kts | 242° |
| 2026-05-01 15:29 | 51.72608 | 1.40621 | 9061 ft | 218 kts | 230° |
| 2026-05-01 15:29 | 51.70780 | 1.37052 | 8831 ft | 196 kts | 227° |
| 2026-05-01 15:30 | 51.69351 | 1.34316 | 8688 ft | 188 kts | 227° |
| 2026-05-01 15:31 | 51.67354 | 1.25838 | 8237 ft | 191 kts | 251° |
| 2026-05-01 15:31 | 51.66697 | 1.21697 | 8031 ft | 191 kts | 251° |
| 2026-05-01 15:32 | 51.66004 | 1.17414 | 7861 ft | 214 kts | 251° |
| 2026-05-01 15:32 | 51.65181 | 1.12391 | 7591 ft | 239 kts | 252° |
| 2026-05-01 15:33 | 51.63915 | 1.04656 | 7176 ft | 237 kts | 251° |
| 2026-05-01 15:34 | 51.62648 | 0.96998 | 6769 ft | 235 kts | 251° |